Time;durP1;ratioP1;P1;durP2;ratioP2;P2;SDS_P1;SDS_P2;PMS_P1;PMS_P2;Temp;Humidity;BMP_temperature;BMP_pressure;BME280_temperature;BME280_humidity;BME280_pressure;Samples;Min_cycle;Max_cycle;Signal;HPM_P1;HPM_P2
2021/07/13 00:00:38;;;;;;;1.88;1.00;;;14.10;99.90;;;;;;5079529;28;20372;-84
2021/07/13 00:03:07;;;;;;;5.82;1.48;;;14.10;99.90;;;;;;5076858;28;20400;-89
2021/07/13 00:05:38;;;;;;;4.03;1.43;;;14.00;99.90;;;;;;5079115;28;20540;-87
2021/07/13 00:08:07;;;;;;;2.63;0.75;;;13.90;99.90;;;;;;5086693;28;20859;-87
2021/07/13 00:10:38;;;;;;;1.67;0.98;;;13.70;99.90;;;;;;5068438;28;20481;-85
2021/07/13 00:13:05;;;;;;;10.10;2.58;;;13.60;99.90;;;;;;5083134;28;20378;-87
2021/07/13 00:15:38;;;;;;;14.07;2.60;;;13.60;99.90;;;;;;5081249;28;20395;-87
2021/07/13 00:18:06;;;;;;;3.10;0.90;;;13.60;99.90;;;;;;5075775;28;20925;-88
2021/07/13 00:20:37;;;;;;;3.33;0.90;;;13.70;99.90;;;;;;5076585;28;20523;-91
2021/07/13 00:23:39;;;;;;;2.35;0.60;;;13.80;99.90;;;;;;5084788;28;20488;-94
2021/07/13 00:26:26;;;;;;;6.28;1.00;;;14.00;99.90;;;;;;5075239;28;20875;-91
2021/07/13 00:28:53;;;;;;;2.15;0.80;;;14.00;99.90;;;;;;5077926;28;20904;-93
2021/07/13 00:31:21;;;;;;;1.95;1.10;;;14.20;99.90;;;;;;5083085;28;20455;-92
2021/07/13 00:33:51;;;;;;;4.90;1.13;;;14.40;99.90;;;;;;5077418;28;20409;-88
2021/07/13 00:36:18;;;;;;;3.20;0.70;;;14.50;99.90;;;;;;5069468;28;20828;-91
2021/07/13 00:38:45;;;;;;;3.35;0.85;;;14.40;99.90;;;;;;5077415;28;20390;-88
2021/07/13 00:41:14;;;;;;;4.75;0.90;;;14.40;99.90;;;;;;5081390;28;20450;-90
2021/07/13 00:43:45;;;;;;;2.08;0.70;;;14.30;99.90;;;;;;5077588;28;20432;-91
2021/07/13 00:46:12;;;;;;;5.22;1.10;;;14.20;99.90;;;;;;5077254;28;20758;-89
2021/07/13 00:48:39;;;;;;;2.63;0.60;;;14.10;99.90;;;;;;5073002;28;20406;-90
2021/07/13 00:51:11;;;;;;;3.17;0.70;;;14.20;99.90;;;;;;5081616;28;20400;-87
2021/07/13 00:53:42;;;;;;;3.72;0.70;;;14.30;99.90;;;;;;5061958;28;20980;-87
2021/07/13 00:56:09;;;;;;;81.85;58.55;;;14.40;99.90;;;;;;5080569;28;20393;-91
2021/07/13 00:58:44;;;;;;;6.53;5.93;;;14.40;99.90;;;;;;5080119;28;20384;-88
2021/07/13 01:01:47;;;;;;;2.53;0.95;;;14.40;99.90;;;;;;5084599;28;20386;-92
2021/07/13 01:04:16;;;;;;;2.03;0.65;;;14.40;99.90;;;;;;5072760;28;20489;-92
2021/07/13 01:07:10;;;;;;;1.25;0.60;;;14.40;99.90;;;;;;5078832;28;20489;-90
2021/07/13 01:10:00;;;;;;;1.60;0.50;;;14.50;99.90;;;;;;5073713;28;20423;-95
2021/07/13 01:13:01;;;;;;;1.20;0.77;;;14.50;99.90;;;;;;5059311;28;20532;-95
2021/07/13 01:15:34;;;;;;;3.45;0.85;;;14.70;99.90;;;;;;5083593;28;20384;-94
2021/07/13 01:18:25;;;;;;;0.77;0.57;;;14.70;99.90;;;;;;5076769;28;20466;-89
2021/07/13 01:20:54;;;;;;;1.73;0.57;;;14.70;99.90;;;;;;5087692;28;20780;-92
2021/07/13 01:23:31;;;;;;;1.00;0.50;;;14.80;99.90;;;;;;5079597;28;20402;-92
2021/07/13 01:26:42;;;;;;;3.67;0.77;;;14.80;99.90;;;;;;5077153;28;20440;-96
2021/07/13 01:29:16;;;;;;;0.90;0.50;;;14.80;99.90;;;;;;5087006;28;20400;-90
2021/07/13 01:31:46;;;;;;;2.03;0.52;;;14.90;99.90;;;;;;5057898;28;20475;-88
2021/07/13 01:34:21;;;;;;;1.42;0.50;;;15.10;99.90;;;;;;5079003;28;20492;-92
2021/07/13 01:36:58;;;;;;;0.70;0.60;;;15.20;99.90;;;;;;5114435;27;20625;-87
2021/07/13 01:39:27;;;;;;;1.58;0.50;;;15.30;99.90;;;;;;5105525;27;20389;-90
2021/07/13 01:42:09;;;;;;;1.35;0.50;;;15.30;99.90;;;;;;5086156;28;20406;-89
2021/07/13 01:44:43;;;;;;;2.38;0.70;;;15.40;99.90;;;;;;5062733;28;20428;-93
2021/07/13 01:47:11;;;;;;;1.60;0.60;;;15.30;99.90;;;;;;5041346;28;20405;-92
2021/07/13 01:49:49;;;;;;;3.90;1.13;;;15.30;99.90;;;;;;5066081;28;21029;-92
2021/07/13 01:52:23;;;;;;;1.92;0.60;;;15.30;99.90;;;;;;5048066;28;20397;-89
2021/07/13 01:54:55;;;;;;;1.48;0.40;;;15.40;99.90;;;;;;5054264;28;20405;-93
2021/07/13 01:57:30;;;;;;;1.55;0.50;;;15.40;99.90;;;;;;5060580;28;20885;-93
2021/07/13 02:00:06;;;;;;;3.80;0.95;;;15.40;99.90;;;;;;5032615;28;20918;-89
2021/07/13 02:02:39;;;;;;;4.35;0.95;;;15.40;99.90;;;;;;5033970;28;20455;-93
2021/07/13 02:05:07;;;;;;;2.28;0.60;;;15.50;99.90;;;;;;5038451;28;20431;-91
2021/07/13 02:07:42;;;;;;;2.92;0.70;;;15.50;99.90;;;;;;5066558;28;20402;-90
2021/07/13 02:10:22;;;;;;;3.97;0.98;;;15.60;99.90;;;;;;5057348;28;20424;-91
2021/07/13 02:12:50;;;;;;;5.32;1.40;;;15.60;99.90;;;;;;5058805;28;20955;-89
2021/07/13 02:15:17;;;;;;;1.93;0.83;;;15.60;99.90;;;;;;5023196;28;20467;-90
2021/07/13 02:17:49;;;;;;;1.60;0.77;;;15.60;99.90;;;;;;5051587;28;20831;-93
2021/07/13 02:20:19;;;;;;;8.73;2.00;;;15.60;99.90;;;;;;5060820;28;20397;-90
2021/07/13 02:22:47;;;;;;;4.75;0.90;;;15.60;99.90;;;;;;5074835;28;20389;-93
2021/07/13 02:25:14;;;;;;;13.30;6.63;;;15.60;99.90;;;;;;5065415;28;20407;-89
2021/07/13 02:28:16;;;;;;;3.40;1.10;;;15.70;99.90;;;;;;5054227;28;20531;-93
2021/07/13 02:30:52;;;;;;;1.40;0.63;;;15.80;99.90;;;;;;5040210;28;20487;-89
2021/07/13 02:33:48;;;;;;;4.93;1.00;;;15.90;99.90;;;;;;5047011;28;20387;-89
2021/07/13 02:36:20;;;;;;;12.13;1.57;;;15.90;99.90;;;;;;5014854;28;20457;-91
2021/07/13 02:38:48;;;;;;;76.72;11.40;;;16.00;99.90;;;;;;5053380;28;21149;-93
2021/07/13 02:41:17;;;;;;;3.92;0.82;;;16.00;99.90;;;;;;5055673;28;20394;-92
2021/07/13 02:43:46;;;;;;;2.88;0.82;;;16.00;99.90;;;;;;5078294;28;20401;-91
2021/07/13 02:46:15;;;;;;;6.90;1.40;;;16.10;99.90;;;;;;5088374;28;20882;-87
2021/07/13 02:48:43;;;;;;;16.45;1.90;;;16.10;99.90;;;;;;5102321;28;20401;-92
2021/07/13 02:51:13;;;;;;;4.03;0.80;;;16.20;99.90;;;;;;5086843;28;20389;-91
2021/07/13 02:53:42;;;;;;;19.75;4.32;;;16.10;99.90;;;;;;5087925;28;20390;-89
2021/07/13 02:56:34;;;;;;;2.13;0.80;;;16.10;99.90;;;;;;5090298;28;20456;-87
2021/07/13 02:59:04;;;;;;;9.00;1.35;;;16.10;99.90;;;;;;5078877;28;20432;-91
2021/07/13 03:01:32;;;;;;;6.78;1.30;;;16.10;99.90;;;;;;5072501;28;20398;-88
2021/07/13 03:04:02;;;;;;;5.53;0.77;;;16.10;99.90;;;;;;5084031;28;20404;-92
2021/07/13 03:06:31;;;;;;;2.20;0.63;;;16.20;99.90;;;;;;5058792;28;20459;-91
2021/07/13 03:08:58;;;;;;;8.98;1.17;;;16.30;99.90;;;;;;5091131;28;20411;-90
2021/07/13 03:11:25;;;;;;;2.35;0.70;;;16.30;99.90;;;;;;5089481;28;20384;-88
2021/07/13 03:13:54;;;;;;;10.10;1.90;;;16.30;99.90;;;;;;5088420;28;20902;-91
2021/07/13 03:16:22;;;;;;;12.63;2.53;;;16.40;99.90;;;;;;5057309;28;20500;-89
2021/07/13 03:18:49;;;;;;;1.23;0.60;;;16.30;99.90;;;;;;5072719;28;20392;-93
2021/07/13 03:21:22;;;;;;;6.40;1.23;;;16.30;99.90;;;;;;5081024;28;20400;-89
2021/07/13 03:23:52;;;;;;;7.75;1.52;;;16.30;99.90;;;;;;5086237;28;20408;-90
2021/07/13 03:26:19;;;;;;;2.97;0.77;;;16.30;99.90;;;;;;5089141;28;20376;-90
2021/07/13 03:28:47;;;;;;;4.28;0.55;;;16.30;99.90;;;;;;5085545;28;20407;-89
2021/07/13 03:31:16;;;;;;;7.28;1.10;;;16.30;99.90;;;;;;5061960;28;20390;-89
2021/07/13 03:33:43;;;;;;;2.00;0.50;;;16.30;99.90;;;;;;5080368;28;20396;-91
2021/07/13 03:36:12;;;;;;;4.20;0.77;;;16.30;99.90;;;;;;5078652;28;20820;-91
2021/07/13 03:38:44;;;;;;;1.77;0.55;;;16.40;99.90;;;;;;5073941;28;20465;-91
2021/07/13 03:41:15;;;;;;;1.50;0.50;;;16.60;99.90;;;;;;5075583;28;20394;-89
2021/07/13 03:43:42;;;;;;;1.75;0.50;;;16.60;99.90;;;;;;5071923;28;20513;-92
2021/07/13 03:46:10;;;;;;;3.28;0.75;;;16.80;99.90;;;;;;5073667;28;20382;-89
2021/07/13 03:48:41;;;;;;;5.00;0.98;;;16.90;99.90;;;;;;5062595;28;20991;-92
2021/07/13 03:51:11;;;;;;;4.63;2.40;;;17.00;99.90;;;;;;5053675;28;20729;-89
2021/07/13 03:53:52;;;;;;;1.60;0.50;;;16.90;99.30;;;;;;5072984;28;20393;-91
2021/07/13 03:56:20;;;;;;;0.98;0.65;;;16.80;99.90;;;;;;5058165;28;20422;-87
2021/07/13 03:58:48;;;;;;;1.23;0.47;;;16.60;99.20;;;;;;5072559;28;20452;-89
2021/07/13 04:01:16;;;;;;;1.33;0.50;;;16.30;99.10;;;;;;5080447;28;20373;-89
2021/07/13 04:03:44;;;;;;;2.15;0.77;;;16.20;99.90;;;;;;5091048;28;20898;-92
2021/07/13 04:06:14;;;;;;;1.88;0.70;;;16.10;99.90;;;;;;5089230;28;20381;-89
2021/07/13 04:08:43;;;;;;;1.20;0.50;;;16.20;99.90;;;;;;5086177;28;20424;-87
2021/07/13 04:11:11;;;;;;;3.30;1.10;;;16.30;99.90;;;;;;5060629;28;20397;-92
2021/07/13 04:13:38;;;;;;;1.60;0.47;;;16.50;99.90;;;;;;5080011;28;20399;-89
2021/07/13 04:16:05;;;;;;;3.05;0.60;;;16.50;99.60;;;;;;5067537;28;20433;-92
2021/07/13 04:18:38;;;;;;;0.50;0.47;;;16.60;99.40;;;;;;5069901;28;20385;-92
2021/07/13 04:21:06;;;;;;;2.40;0.50;;;16.60;99.10;;;;;;5056934;28;20425;-91
2021/07/13 04:23:34;;;;;;;8.43;0.75;;;16.60;99.40;;;;;;5069644;28;20422;-89
2021/07/13 04:26:01;;;;;;;9.60;1.07;;;16.60;98.90;;;;;;5062515;28;20490;-93
2021/07/13 04:28:31;;;;;;;6.10;0.80;;;16.70;97.90;;;;;;5062600;28;20400;-92
2021/07/13 04:30:59;;;;;;;8.25;1.08;;;16.60;98.40;;;;;;5070176;28;20393;-91
2021/07/13 04:33:26;;;;;;;2.33;0.68;;;16.50;98.80;;;;;;5073448;28;20475;-89
2021/07/13 04:35:55;;;;;;;3.85;0.75;;;16.40;99.60;;;;;;5075014;28;20382;-93
2021/07/13 04:38:22;;;;;;;5.75;0.70;;;16.30;99.40;;;;;;5074853;28;20401;-91
2021/07/13 04:40:51;;;;;;;1.85;0.52;;;16.10;99.90;;;;;;5071844;28;20397;-92
2021/07/13 04:43:20;;;;;;;13.50;1.90;;;16.00;99.90;;;;;;5075811;28;20414;-90
2021/07/13 04:45:48;;;;;;;1.60;0.70;;;15.90;99.90;;;;;;5070171;28;20411;-89
2021/07/13 04:48:16;;;;;;;1.20;0.65;;;15.90;99.90;;;;;;5068735;28;20393;-92
2021/07/13 04:50:43;;;;;;;1.38;0.70;;;16.00;99.90;;;;;;5071052;28;20904;-90
2021/07/13 04:53:10;;;;;;;0.90;0.63;;;16.00;99.90;;;;;;5079955;28;20481;-89
2021/07/13 04:55:37;;;;;;;2.08;0.80;;;16.10;99.90;;;;;;5082118;28;20903;-91
2021/07/13 04:58:06;;;;;;;4.13;0.90;;;16.20;99.90;;;;;;5070900;28;20418;-91
2021/07/13 05:00:33;;;;;;;1.52;0.70;;;16.20;99.90;;;;;;5071956;28;20477;-92
2021/07/13 05:03:00;;;;;;;1.38;0.60;;;16.20;99.90;;;;;;5060504;28;20932;-91
2021/07/13 05:05:27;;;;;;;1.20;0.80;;;16.20;99.90;;;;;;5066876;28;20421;-90
2021/07/13 05:07:54;;;;;;;12.45;1.67;;;16.10;99.90;;;;;;5074850;28;20401;-92
2021/07/13 05:10:21;;;;;;;3.77;0.70;;;16.10;99.90;;;;;;5077063;28;20444;-95
2021/07/13 05:12:50;;;;;;;2.30;0.70;;;16.00;99.90;;;;;;5090377;28;20471;-91
2021/07/13 05:15:17;;;;;;;1.65;0.60;;;15.90;99.90;;;;;;5083542;28;20425;-93
2021/07/13 05:17:44;;;;;;;2.30;0.63;;;15.70;99.90;;;;;;5078533;28;20382;-92
2021/07/13 05:20:14;;;;;;;1.77;0.70;;;15.60;99.90;;;;;;5071201;28;20401;-92
2021/07/13 05:22:43;;;;;;;2.72;0.80;;;15.50;99.90;;;;;;5096983;28;20389;-96
2021/07/13 05:25:13;;;;;;;2.30;0.75;;;15.50;99.90;;;;;;5075849;28;20386;-94
2021/07/13 05:27:42;;;;;;;2.00;0.70;;;15.40;99.90;;;;;;5074037;28;20733;-89
2021/07/13 05:30:11;;;;;;;2.22;0.73;;;15.30;99.90;;;;;;5065597;28;20374;-86
2021/07/13 05:32:39;;;;;;;2.63;0.80;;;15.20;99.90;;;;;;5086235;28;20404;-86
2021/07/13 05:35:13;;;;;;;4.15;0.80;;;15.10;99.90;;;;;;5075255;28;20383;-88
2021/07/13 05:37:41;;;;;;;1.55;0.85;;;15.00;99.90;;;;;;5058681;28;20396;-88
2021/07/13 05:40:09;;;;;;;4.10;0.80;;;14.90;99.90;;;;;;5072417;28;20370;-87
2021/07/13 05:42:36;;;;;;;2.30;0.90;;;14.80;99.90;;;;;;5056162;28;20400;-85
2021/07/13 05:45:07;;;;;;;2.03;1.00;;;14.70;99.90;;;;;;5081637;28;20400;-87
2021/07/13 05:47:35;;;;;;;1.58;0.90;;;14.70;99.90;;;;;;5072218;28;20400;-89
2021/07/13 05:50:13;;;;;;;3.70;1.05;;;14.70;99.90;;;;;;5060564;28;20425;-90
2021/07/13 05:52:43;;;;;;;2.75;1.40;;;14.60;99.90;;;;;;5078316;28;20382;-90
2021/07/13 05:55:14;;;;;;;2.70;1.60;;;14.50;99.90;;;;;;5082447;28;20558;-91
2021/07/13 05:57:45;;;;;;;3.17;1.70;;;14.50;99.90;;;;;;5079218;28;20414;-89
2021/07/13 06:00:15;;;;;;;4.32;1.90;;;14.40;99.90;;;;;;5076835;28;20403;-90
2021/07/13 06:02:50;;;;;;;2.95;2.00;;;14.30;99.90;;;;;;5089138;28;20947;-90
2021/07/13 06:05:23;;;;;;;3.08;1.63;;;14.20;99.90;;;;;;5077801;28;20784;-91
2021/07/13 06:07:50;;;;;;;2.75;1.33;;;14.20;99.90;;;;;;5077524;28;20384;-89
2021/07/13 06:10:23;;;;;;;6.35;1.98;;;14.10;99.90;;;;;;5077732;28;20406;-91
2021/07/13 06:12:51;;;;;;;1.67;1.48;;;14.00;99.90;;;;;;5075599;28;20418;-88
2021/07/13 06:15:23;;;;;;;2.25;1.30;;;14.00;99.90;;;;;;5057444;28;20863;-92
2021/07/13 06:17:50;;;;;;;1.73;1.30;;;13.90;99.90;;;;;;5058540;28;20839;-91
2021/07/13 06:20:18;;;;;;;1.70;1.60;;;13.90;99.90;;;;;;5081856;28;20918;-90
2021/07/13 06:22:45;;;;;;;3.93;1.50;;;13.80;99.90;;;;;;5067709;28;20481;-90
2021/07/13 06:25:19;;;;;;;2.42;1.10;;;13.80;99.90;;;;;;5082629;28;20416;-90
2021/07/13 06:27:49;;;;;;;2.30;1.30;;;13.80;99.90;;;;;;5075857;28;20390;-89
2021/07/13 06:30:26;;;;;;;2.67;1.58;;;13.70;99.90;;;;;;5070463;28;20394;-94
2021/07/13 06:33:02;;;;;;;4.32;1.70;;;13.70;99.90;;;;;;5074499;28;20388;-93
2021/07/13 06:35:41;;;;;;;5.88;3.15;;;13.60;99.90;;;;;;5086830;28;21124;-92
2021/07/13 06:38:20;;;;;;;9.10;4.67;;;13.50;99.90;;;;;;5076809;28;20418;-95
2021/07/13 06:40:47;;;;;;;7.65;5.15;;;13.40;99.90;;;;;;5075128;28;20434;-94
2021/07/13 06:43:15;;;;;;;14.88;10.55;;;13.30;99.90;;;;;;5076002;28;20408;-92
2021/07/13 06:45:43;;;;;;;20.52;14.82;;;13.20;99.90;;;;;;5082681;28;20411;-93
2021/07/13 06:48:10;;;;;;;47.25;35.45;;;13.20;99.90;;;;;;5081176;28;20395;-90
2021/07/13 06:50:37;;;;;;;56.75;40.90;;;13.10;99.90;;;;;;5078581;28;20404;-87
2021/07/13 06:53:07;;;;;;;39.17;27.13;;;13.10;99.90;;;;;;5086964;28;20379;-90
2021/07/13 06:55:35;;;;;;;8.35;6.50;;;13.00;99.90;;;;;;5083614;28;20507;-89
2021/07/13 06:58:02;;;;;;;5.68;3.70;;;13.00;99.90;;;;;;5084330;28;20368;-89
2021/07/13 07:00:29;;;;;;;4.23;2.13;;;13.00;99.90;;;;;;5087553;28;20397;-90
2021/07/13 07:02:56;;;;;;;4.68;2.40;;;13.00;99.90;;;;;;5069172;28;20915;-89
2021/07/13 07:05:23;;;;;;;4.65;2.55;;;12.90;99.90;;;;;;5070540;28;20436;-89
2021/07/13 07:07:51;;;;;;;5.20;3.50;;;12.90;99.90;;;;;;5069742;28;20531;-90
2021/07/13 07:10:20;;;;;;;7.45;4.88;;;12.80;99.90;;;;;;5072095;28;20813;-92
2021/07/13 07:12:50;;;;;;;4.50;4.10;;;12.80;99.90;;;;;;5070167;28;20401;-92
2021/07/13 07:15:18;;;;;;;5.55;4.75;;;12.70;99.90;;;;;;5070046;28;20437;-93
2021/07/13 07:17:53;;;;;;;6.53;4.63;;;12.60;99.90;;;;;;5072062;28;20456;-93
2021/07/13 07:20:22;;;;;;;7.97;3.85;;;12.50;99.90;;;;;;5071644;28;20386;-91
2021/07/13 07:22:51;;;;;;;3.57;3.00;;;12.50;99.90;;;;;;5072799;28;20757;-93
2021/07/13 07:25:18;;;;;;;6.60;3.30;;;12.40;99.90;;;;;;5071964;28;20386;-91
2021/07/13 07:27:46;;;;;;;4.93;2.80;;;12.30;99.90;;;;;;5072688;28;20400;-93
2021/07/13 07:30:17;;;;;;;8.90;3.10;;;12.30;99.90;;;;;;5072908;28;20397;-92
2021/07/13 07:32:52;;;;;;;7.03;2.65;;;12.30;99.90;;;;;;5073081;28;20465;-94
2021/07/13 07:35:19;;;;;;;5.60;2.90;;;12.20;99.90;;;;;;5070823;28;20794;-89
2021/07/13 07:37:49;;;;;;;4.13;3.15;;;12.20;99.90;;;;;;5083556;28;20391;-95
2021/07/13 07:40:18;;;;;;;6.70;3.40;;;12.10;99.90;;;;;;5057910;28;20391;-92
2021/07/13 07:42:51;;;;;;;4.13;2.90;;;12.20;99.90;;;;;;5073256;28;20397;-92
2021/07/13 07:45:20;;;;;;;4.22;3.00;;;12.20;99.90;;;;;;5055520;28;20410;-91
2021/07/13 07:47:51;;;;;;;6.00;2.80;;;12.10;99.90;;;;;;5073273;28;20398;-93
2021/07/13 07:50:30;;;;;;;3.63;2.67;;;12.00;99.90;;;;;;5076219;28;20390;-89
2021/07/13 07:52:57;;;;;;;6.95;3.00;;;12.00;99.90;;;;;;5089421;28;20384;-91
2021/07/13 07:55:28;;;;;;;5.97;2.95;;;12.00;99.90;;;;;;5070855;28;20381;-92
2021/07/13 07:57:55;;;;;;;5.25;2.90;;;12.00;99.90;;;;;;5071924;28;20468;-92
2021/07/13 08:00:23;;;;;;;6.90;3.07;;;11.90;99.90;;;;;;5077593;28;20932;-93
2021/07/13 08:02:50;;;;;;;9.52;4.30;;;11.90;99.90;;;;;;5086605;28;20763;-92
2021/07/13 08:05:18;;;;;;;7.78;5.00;;;11.90;99.90;;;;;;5081155;28;20408;-94
2021/07/13 08:07:47;;;;;;;10.38;6.43;;;11.80;99.90;;;;;;5090607;28;20411;-92
2021/07/13 08:10:15;;;;;;;8.38;6.30;;;11.80;99.90;;;;;;5076816;28;20393;-94
2021/07/13 08:12:42;;;;;;;9.68;7.47;;;11.70;99.90;;;;;;5078724;28;20398;-93
2021/07/13 08:15:11;;;;;;;14.70;10.50;;;11.60;99.90;;;;;;5073230;28;20468;-93
2021/07/13 08:17:39;;;;;;;14.25;12.70;;;11.60;99.90;;;;;;5074233;28;20398;-93
2021/07/13 08:20:09;;;;;;;11.13;9.30;;;11.60;99.90;;;;;;5069481;28;20513;-94
2021/07/13 08:22:37;;;;;;;8.90;7.13;;;11.60;99.90;;;;;;5079823;28;21549;-93
2021/07/13 08:25:05;;;;;;;8.57;5.03;;;11.60;99.90;;;;;;5090645;28;20412;-92
2021/07/13 08:27:33;;;;;;;6.18;4.22;;;11.60;99.90;;;;;;5084529;28;20394;-92
2021/07/13 08:30:00;;;;;;;7.07;4.28;;;11.60;99.90;;;;;;5076214;28;20410;-92
2021/07/13 08:32:26;;;;;;;8.88;4.18;;;11.60;99.90;;;;;;5079148;28;20446;-91
2021/07/13 08:34:55;;;;;;;8.77;5.30;;;11.60;99.90;;;;;;5080056;28;20483;-89
2021/07/13 08:37:25;;;;;;;6.90;4.68;;;11.60;99.90;;;;;;5090674;28;20398;-90
2021/07/13 08:39:52;;;;;;;8.68;4.93;;;11.50;99.90;;;;;;5078013;28;20401;-88
2021/07/13 08:42:21;;;;;;;9.27;5.07;;;11.40;99.90;;;;;;5069304;28;20401;-92
2021/07/13 08:44:51;;;;;;;12.25;5.40;;;11.30;99.90;;;;;;5080680;28;20416;-93
2021/07/13 08:47:18;;;;;;;12.13;6.13;;;11.20;99.90;;;;;;5073956;28;21158;-92
2021/07/13 08:49:52;;;;;;;11.90;6.25;;;11.10;99.90;;;;;;5079852;28;20494;-94
2021/07/13 08:52:19;;;;;;;13.65;6.57;;;11.00;99.90;;;;;;5086062;28;20389;-94
2021/07/13 08:54:47;;;;;;;12.70;7.07;;;10.90;99.90;;;;;;5081211;28;20396;-94
2021/07/13 08:57:14;;;;;;;10.83;6.87;;;10.80;99.90;;;;;;5084992;28;20373;-91
2021/07/13 08:59:45;;;;;;;10.73;6.97;;;10.70;99.90;;;;;;5075786;28;20381;-91
2021/07/13 09:02:13;;;;;;;9.18;7.10;;;10.60;99.90;;;;;;5083928;28;20496;-93
2021/07/13 09:04:41;;;;;;;9.20;5.35;;;10.60;99.90;;;;;;5079904;28;20899;-91
2021/07/13 09:07:09;;;;;;;9.02;6.28;;;10.60;99.90;;;;;;5087801;28;20392;-90
2021/07/13 09:09:47;;;;;;;11.05;4.63;;;10.60;99.90;;;;;;5074013;28;20525;-93
2021/07/13 09:12:22;;;;;;;9.20;4.68;;;10.70;99.90;;;;;;5106315;28;20408;-90
2021/07/13 09:14:59;;;;;;;7.57;5.20;;;10.60;99.90;;;;;;5086901;28;20423;-93
2021/07/13 09:17:42;;;;;;;8.27;4.40;;;10.60;99.90;;;;;;5091156;28;20430;-92
2021/07/13 09:20:27;;;;;;;7.85;6.00;;;10.70;99.90;;;;;;5086729;28;20421;-94
2021/07/13 09:22:58;;;;;;;9.05;5.55;;;10.60;99.90;;;;;;5074138;28;20397;-93
2021/07/13 09:25:32;;;;;;;8.10;5.15;;;10.60;99.90;;;;;;5073371;28;20927;-93
2021/07/13 09:28:13;;;;;;;7.15;5.47;;;10.50;99.90;;;;;;5076369;28;20383;-94
2021/07/13 09:30:43;;;;;;;9.35;7.07;;;10.40;99.90;;;;;;5078847;28;20516;-94
2021/07/13 09:33:11;;;;;;;14.80;9.32;;;10.20;99.90;;;;;;5076414;28;20393;-93
2021/07/13 09:35:40;;;;;;;19.52;12.57;;;10.10;99.90;;;;;;5074520;28;20449;-91
2021/07/13 09:38:07;;;;;;;15.70;10.73;;;10.20;99.90;;;;;;5077446;28;20385;-93
2021/07/13 09:40:37;;;;;;;10.65;8.65;;;10.10;99.90;;;;;;5076704;28;20388;-94
2021/07/13 09:43:05;;;;;;;10.75;7.55;;;10.20;99.90;;;;;;5087512;28;20388;-93
2021/07/13 09:45:33;;;;;;;10.65;6.45;;;10.30;99.90;;;;;;5087545;28;20390;-92
2021/07/13 09:48:11;;;;;;;8.15;6.43;;;10.40;99.90;;;;;;5074170;28;20477;-91
2021/07/13 09:50:49;;;;;;;11.95;8.38;;;10.50;99.90;;;;;;5072163;28;20390;-93
2021/07/13 09:53:18;;;;;;;11.60;8.52;;;10.50;99.90;;;;;;5081297;28;20457;-92
2021/07/13 09:55:47;;;;;;;10.85;8.20;;;10.50;99.90;;;;;;5092022;28;20424;-94
2021/07/13 09:58:26;;;;;;;7.97;5.55;;;10.40;99.90;;;;;;5090790;28;20388;-94
2021/07/13 10:00:58;;;;;;;9.73;7.30;;;10.40;99.90;;;;;;5087271;28;20469;-93
2021/07/13 10:03:29;;;;;;;9.07;6.65;;;10.40;99.90;;;;;;5075770;28;20918;-93
2021/07/13 10:05:58;;;;;;;10.38;7.95;;;10.40;99.90;;;;;;5097280;28;20380;-93
2021/07/13 10:08:27;;;;;;;9.48;6.90;;;10.30;99.90;;;;;;5081755;28;20370;-92
2021/07/13 10:10:54;;;;;;;11.07;7.38;;;10.20;99.90;;;;;;5074216;28;20409;-92
2021/07/13 10:13:21;;;;;;;9.95;7.90;;;10.10;99.90;;;;;;5076048;28;20473;-92
2021/07/13 10:15:50;;;;;;;11.63;8.95;;;10.00;99.90;;;;;;5075098;28;20398;-92
2021/07/13 10:18:17;;;;;;;12.27;9.00;;;9.90;99.90;;;;;;5083151;28;20381;-91
2021/07/13 10:20:44;;;;;;;14.13;10.48;;;9.90;99.90;;;;;;5081411;28;20400;-91
2021/07/13 10:23:13;;;;;;;13.07;10.10;;;9.80;99.90;;;;;;5053643;28;20435;-91
2021/07/13 10:25:44;;;;;;;15.10;11.70;;;9.70;99.90;;;;;;5087514;28;20398;-91
2021/07/13 10:28:19;;;;;;;20.10;13.48;;;9.60;99.90;;;;;;5073127;28;20933;-93
2021/07/13 10:30:46;;;;;;;16.52;12.80;;;9.60;99.90;;;;;;5089527;28;20394;-93
2021/07/13 10:33:45;;;;;;;21.38;14.88;;;9.50;99.90;;;;;;5078739;28;20427;-94
2021/07/13 10:36:28;;;;;;;19.85;14.82;;;9.50;99.90;;;;;;5087546;28;20393;-92
2021/07/13 10:39:26;;;;;;;14.53;12.97;;;9.50;99.90;;;;;;5073905;28;20493;-92
2021/07/13 10:41:56;;;;;;;14.85;10.93;;;9.40;99.90;;;;;;5070688;28;20427;-94
2021/07/13 10:44:48;;;;;;;15.80;12.00;;;9.40;99.90;;;;;;5076509;28;20418;-93
2021/07/13 10:47:26;;;;;;;12.30;9.80;;;9.40;99.90;;;;;;5075807;28;20406;-90
2021/07/13 10:50:25;;;;;;;12.68;9.43;;;9.40;99.90;;;;;;5070442;28;20390;-93
2021/07/13 10:52:58;;;;;;;11.82;7.35;;;9.30;99.90;;;;;;5062448;28;20397;-94
2021/07/13 10:55:31;;;;;;;11.43;7.85;;;9.40;99.90;;;;;;5075787;28;20451;-91
2021/07/13 10:58:10;;;;;;;8.32;5.95;;;9.50;99.90;;;;;;5091858;28;20843;-91
2021/07/13 11:00:58;;;;;;;8.50;5.35;;;9.60;99.90;;;;;;5076251;28;20756;-92
2021/07/13 11:03:31;;;;;;;6.00;4.32;;;9.60;99.90;;;;;;5104583;28;20404;-93
2021/07/13 11:06:05;;;;;;;5.93;3.90;;;9.70;99.90;;;;;;5083626;28;20455;-92
2021/07/13 11:08:44;;;;;;;5.45;3.92;;;9.70;99.90;;;;;;5088887;28;20389;-92
2021/07/13 11:11:29;;;;;;;6.60;3.92;;;9.80;99.90;;;;;;5090657;28;20400;-92
2021/07/13 11:14:05;;;;;;;4.30;3.30;;;9.80;99.90;;;;;;5087037;28;20396;-91
2021/07/13 11:16:40;;;;;;;4.75;4.13;;;9.90;99.90;;;;;;5074296;28;20390;-94
2021/07/13 11:19:12;;;;;;;5.88;4.43;;;9.90;99.90;;;;;;5074234;28;20745;-92
2021/07/13 11:21:44;;;;;;;5.20;4.03;;;9.90;99.90;;;;;;5065656;28;20494;-93
2021/07/13 11:24:17;;;;;;;5.50;3.92;;;9.80;99.90;;;;;;5062266;28;20408;-94
2021/07/13 11:26:53;;;;;;;20.58;18.27;;;9.90;99.90;;;;;;5078500;28;20401;-94
2021/07/13 11:29:30;;;;;;;10.38;7.90;;;9.90;99.90;;;;;;5062546;28;20388;-94
2021/07/13 11:32:00;;;;;;;9.75;7.82;;;9.80;99.90;;;;;;5071499;28;20392;-94
2021/07/13 11:34:40;;;;;;;10.20;7.45;;;9.70;99.90;;;;;;5069763;28;20434;-93
2021/07/13 11:37:08;;;;;;;10.38;7.70;;;9.70;99.90;;;;;;5078166;28;20411;-93
2021/07/13 11:39:40;;;;;;;9.00;6.03;;;9.60;99.90;;;;;;5074748;28;20401;-93
2021/07/13 11:42:09;;;;;;;9.05;6.43;;;9.60;99.90;;;;;;5080400;28;20412;-95
2021/07/13 11:44:42;;;;;;;8.97;5.60;;;9.70;99.90;;;;;;5092762;28;20496;-94
2021/07/13 11:47:19;;;;;;;6.97;5.30;;;9.70;99.90;;;;;;5086139;28;20743;-93
2021/07/13 11:49:46;;;;;;;5.93;3.85;;;9.70;99.90;;;;;;5080515;28;20416;-94
2021/07/13 11:52:15;;;;;;;5.18;3.50;;;9.70;99.90;;;;;;5053752;28;20422;-94
2021/07/13 11:54:48;;;;;;;4.57;3.50;;;9.80;99.90;;;;;;5088919;28;20490;-91
2021/07/13 11:57:18;;;;;;;5.37;3.67;;;9.80;99.90;;;;;;5052611;28;20419;-91
2021/07/13 11:59:46;;;;;;;6.53;3.60;;;9.90;99.90;;;;;;5064790;28;20757;-91
2021/07/13 12:02:13;;;;;;;5.15;2.80;;;9.80;99.90;;;;;;5071338;28;20413;-91
2021/07/13 12:04:48;;;;;;;4.43;3.17;;;9.70;99.90;;;;;;5080095;28;20408;-92
2021/07/13 12:07:16;;;;;;;5.00;3.40;;;9.70;99.90;;;;;;5077045;28;21076;-89
2021/07/13 12:09:43;;;;;;;4.10;3.07;;;9.60;99.90;;;;;;5056580;28;20406;-92
2021/07/13 12:12:21;;;;;;;5.40;3.40;;;9.60;99.90;;;;;;5057896;28;20394;-94
2021/07/13 12:14:56;;;;;;;4.70;4.00;;;9.60;99.90;;;;;;5073908;28;20425;-91
2021/07/13 12:17:27;;;;;;;8.57;5.17;;;9.50;99.90;;;;;;5087851;28;20419;-93
2021/07/13 12:19:57;;;;;;;5.95;4.75;;;9.50;99.90;;;;;;5080495;28;20386;-91
2021/07/13 12:22:25;;;;;;;9.77;6.78;;;9.40;99.90;;;;;;5072714;28;20397;-92
2021/07/13 12:24:59;;;;;;;8.10;5.70;;;9.40;99.90;;;;;;5085085;28;20490;-91
2021/07/13 12:27:31;;;;;;;12.32;7.00;;;9.40;99.90;;;;;;5053967;28;20376;-91
2021/07/13 12:30:13;;;;;;;14.05;8.57;;;9.40;99.90;;;;;;5081870;28;20498;-91
2021/07/13 12:32:41;;;;;;;12.10;7.55;;;9.40;99.90;;;;;;5085572;28;20495;-91
2021/07/13 12:35:11;;;;;;;13.73;8.00;;;9.40;99.90;;;;;;5091230;28;20387;-91
2021/07/13 12:37:39;;;;;;;13.18;7.10;;;9.30;99.90;;;;;;5090943;28;20417;-94
2021/07/13 12:40:11;;;;;;;12.65;8.25;;;9.30;99.90;;;;;;5079391;28;20384;-92
2021/07/13 12:42:42;;;;;;;11.50;8.07;;;9.20;99.90;;;;;;5089054;28;20406;-94
2021/07/13 12:45:13;;;;;;;14.73;8.88;;;9.20;99.90;;;;;;5076721;28;20887;-92
2021/07/13 12:47:48;;;;;;;12.52;8.48;;;9.10;99.90;;;;;;5084907;28;20400;-91
2021/07/13 12:50:26;;;;;;;12.65;8.85;;;9.10;99.90;;;;;;5077200;28;20463;-93
2021/07/13 12:52:59;;;;;;;15.38;9.95;;;9.00;99.90;;;;;;5061680;28;20949;-93
2021/07/13 12:55:39;;;;;;;12.65;10.05;;;9.00;99.90;;;;;;5105617;27;20408;-91
2021/07/13 12:58:26;;;;;;;12.73;9.15;;;8.90;99.90;;;;;;5082370;28;20378;-93
2021/07/13 13:00:54;;;;;;;16.92;9.95;;;8.90;99.90;;;;;;5084406;28;20388;-94
2021/07/13 13:03:29;;;;;;;13.30;9.27;;;8.90;99.90;;;;;;5085654;28;20398;-93
2021/07/13 13:06:09;;;;;;;11.50;9.57;;;8.90;99.90;;;;;;5085191;28;20449;-90
2021/07/13 13:08:43;;;;;;;10.82;8.82;;;8.80;99.90;;;;;;5088650;28;20372;-92